Willoughby, OH (44095)

10:23 PM EDT on September 01, 2015 (GMT -0400)
Reeves Road | | Change Station
CLOSE
Current Station
Personal Weather Station
Location: Eastlake, OH
Elevation: 607 ft
Nearby Weather Stations

Elev 607 ft 41.67 °N, 81.42 °W | Updated 11 minutes ago

Partly Cloudy
Partly Cloudy
72.1 °F
Feels Like 71 °F
N
0.0
Wind Variable Wind from ESE

Today
High -- | Low -- °F
--% Chance of Precip.
Yesterday
High -- | Low -- °F
Precip. -- in
6:51 AM 7:59 PM
Waning Gibbous, 84% visible
Pressure 30.10 in
Visibility 7.0 miles
Clouds Scattered Clouds 12000 ft
Heat Index 71 °F
Dew Point 68 °F
Humidity 86%
Rainfall 0.00 in
Snow Depth Not available.
UV 0 out of 12
Pollen 10.80 out of 12
Air Quality Not available.
Flu Activity Not available.
METAR KCGF 020145Z 14004KT 7SM SCT120 24/21 A3010
Pressure 30.10 in
Visibility 7.0 miles
Clouds Scattered Clouds 12000 ft
Heat Index 71 °F
Dew Point 68 °F
Humidity 86%
Rainfall 0.00 in
Snow Depth Not available.
UV 0 out of 12
Pollen 10.80 out of 12
Air Quality Not available.
Flu Activity Not available.
METAR KCGF 020145Z 14004KT 7SM SCT120 24/21 A3010

10-Day Weather Forecast

×

Almanac

Astronomy

Sep. 01, 2015 Rise Set
Actual Time
Civil Twilight
Nautical Twilight
Astronomical Twilight
Moon
Length of Visible Light
Length of Day
Tomorrow will be .
, % of the Moon is Illuminated

Today's Extremes

State Highs State Lows

Community

WunderPhotos

Upload Photos

1,851,679 photos uploaded!

WunderBlogs® & News

Nearby

Air Quality

  Air Quality AQ Index Pollutant
Not available.

Snow Depth

Station Depth Elevation

Earthquake Activity

City Distance Mag. Time & Date
Minimum magnitude displayed is 2.5.

Coastal Water Temperatures

Place Temperature

Stations

Nearby Weather Stations

Station Location Temp. Windchill Dew Point Humidity Wind Precip. Elev Updated Type